createdAt,value
2023-01-25T00:00:49.249Z,26.45
2023-01-25T00:03:17.224Z,27.05
2023-01-25T00:05:44.995Z,25.23
2023-01-25T00:08:12.844Z,26.55
2023-01-25T00:10:42.005Z,28.75
2023-01-25T00:13:09.772Z,27.25
2023-01-25T00:15:37.547Z,25.25
2023-01-25T00:18:05.481Z,25.20
2023-01-25T00:20:33.277Z,28.40
2023-01-25T00:23:01.043Z,26.00
2023-01-25T00:25:28.862Z,26.23
2023-01-25T00:27:58.036Z,27.40
2023-01-25T00:30:25.845Z,27.92
2023-01-25T00:32:59.249Z,24.85
2023-01-25T00:35:32.466Z,25.77
2023-01-25T00:38:03.035Z,27.65
2023-01-25T00:40:30.885Z,25.08
2023-01-25T00:43:01.765Z,26.52
2023-01-25T00:45:29.832Z,25.92
2023-01-25T00:47:57.738Z,25.48
2023-01-25T00:50:25.820Z,27.00
2023-01-25T00:52:53.631Z,26.15
2023-01-25T00:55:21.476Z,23.52
2023-01-25T00:57:50.236Z,26.45
2023-01-25T01:00:19.714Z,28.48
2023-01-25T01:02:48.041Z,26.70
2023-01-25T01:05:15.978Z,27.08
2023-01-25T01:07:44.429Z,28.95
2023-01-25T01:10:13.543Z,29.60
2023-01-25T01:12:41.318Z,24.77
2023-01-25T01:15:10.510Z,28.00
2023-01-25T01:17:39.711Z,28.67
2023-01-25T01:20:08.457Z,29.10
2023-01-25T01:22:36.241Z,25.08
2023-01-25T01:25:04.467Z,27.27
2023-01-25T01:27:32.259Z,29.15
2023-01-25T01:30:00.067Z,29.85
2023-01-25T01:32:28.043Z,27.75
2023-01-25T01:34:57.317Z,27.80
2023-01-25T01:37:25.126Z,26.88
2023-01-25T01:39:53.266Z,28.75
2023-01-25T01:42:21.174Z,30.02
2023-01-25T01:44:51.772Z,27.95
2023-01-25T01:47:27.113Z,28.55
2023-01-25T01:50:04.555Z,28.17
2023-01-25T01:52:37.083Z,27.90
2023-01-25T01:55:09.683Z,30.33
2023-01-25T01:57:42.544Z,28.63
2023-01-25T02:00:17.139Z,29.27
2023-01-25T02:02:46.972Z,29.20
2023-01-25T02:05:21.182Z,30.38
2023-01-25T02:07:52.043Z,30.55
2023-01-25T02:10:21.955Z,32.50
2023-01-25T02:12:53.756Z,29.17
2023-01-25T02:15:21.540Z,29.95
2023-01-25T02:17:51.270Z,30.02
2023-01-25T02:20:28.318Z,33.78
2023-01-25T02:23:02.925Z,28.92
2023-01-25T02:25:32.262Z,29.38
2023-01-25T02:28:08.138Z,32.85
2023-01-25T02:30:36.026Z,29.98
2023-01-25T02:33:03.787Z,28.70
2023-01-25T02:35:40.441Z,29.10
2023-01-25T02:38:09.103Z,28.73
2023-01-25T02:40:46.455Z,29.60
2023-01-25T02:43:15.239Z,31.77
2023-01-25T02:45:46.744Z,30.55
2023-01-25T02:48:14.622Z,32.70
2023-01-25T02:50:42.482Z,29.63
2023-01-25T02:53:10.247Z,31.83
2023-01-25T02:55:39.530Z,34.55
2023-01-25T02:58:09.333Z,32.45
2023-01-25T03:00:37.215Z,31.08
2023-01-25T03:03:05.116Z,29.08
2023-01-25T03:05:34.401Z,34.28
2023-01-25T03:08:02.267Z,33.83
2023-01-25T03:10:30.151Z,33.72
2023-01-25T03:13:00.414Z,35.97
2023-01-25T03:15:28.698Z,34.72
2023-01-25T03:17:57.377Z,34.22
2023-01-25T03:20:25.183Z,36.90
2023-01-25T03:22:53.245Z,34.35
2023-01-25T03:25:21.249Z,36.35
2023-01-25T03:27:57.709Z,34.33
2023-01-25T03:30:26.925Z,32.53
2023-01-25T03:32:55.304Z,34.47
2023-01-25T03:35:23.143Z,35.92
2023-01-25T03:37:50.966Z,35.47
2023-01-25T03:40:19.116Z,32.55
2023-01-25T03:42:52.218Z,35.13
2023-01-25T03:45:20.149Z,35.80
2023-01-25T03:47:49.944Z,34.75
2023-01-25T03:50:17.914Z,33.38
2023-01-25T03:52:48.775Z,36.70
2023-01-25T03:55:16.836Z,34.92
2023-01-25T03:57:49.024Z,31.98
2023-01-25T04:00:18.403Z,32.88
2023-01-25T04:02:51.885Z,37.58
2023-01-25T04:05:21.170Z,33.25
2023-01-25T04:07:49.045Z,35.20
2023-01-25T04:10:21.454Z,33.75
2023-01-25T04:12:49.963Z,36.72
2023-01-25T04:15:18.467Z,37.67
2023-01-25T04:17:46.489Z,36.20
2023-01-25T04:20:33.488Z,35.25
2023-01-25T04:23:01.584Z,34.72
2023-01-25T04:25:37.062Z,37.20
2023-01-25T04:28:10.310Z,38.63
2023-01-25T04:30:38.094Z,38.78
2023-01-25T04:33:06.774Z,40.00
2023-01-25T04:35:36.912Z,38.20
2023-01-25T04:38:07.343Z,36.53
2023-01-25T04:40:39.157Z,40.72
2023-01-25T04:43:07.545Z,40.20
2023-01-25T04:45:36.547Z,41.85
2023-01-25T04:48:10.679Z,43.58
2023-01-25T04:50:45.096Z,38.95
2023-01-25T04:53:14.584Z,42.13
2023-01-25T04:55:47.007Z,40.72
2023-01-25T04:58:16.035Z,39.30
2023-01-25T05:00:44.942Z,39.08
2023-01-25T05:03:13.032Z,37.78
2023-01-25T05:05:47.619Z,37.97
2023-01-25T05:08:18.862Z,40.05
2023-01-25T05:10:46.913Z,36.13
2023-01-25T05:13:37.585Z,38.97
2023-01-25T05:16:19.619Z,39.08
2023-01-25T05:18:49.471Z,40.33
2023-01-25T05:21:44.986Z,39.40
2023-01-25T05:24:14.636Z,38.92
2023-01-25T05:27:05.741Z,41.83
2023-01-25T05:29:57.589Z,41.40
2023-01-25T05:35:31.959Z,35.60
2023-01-25T05:38:01.307Z,37.30
2023-01-25T05:40:29.151Z,36.70
2023-01-25T05:45:31.067Z,38.55
2023-01-25T05:48:00.008Z,39.35
2023-01-25T05:50:28.450Z,41.22
2023-01-25T05:53:03.966Z,38.22
2023-01-25T05:55:31.768Z,42.38
2023-01-25T05:58:04.606Z,42.13
2023-01-25T06:00:33.061Z,36.55
2023-01-25T06:03:02.045Z,44.25
2023-01-25T06:05:32.015Z,44.50
2023-01-25T06:08:00.015Z,37.38
2023-01-25T06:10:35.848Z,41.60
2023-01-25T06:13:04.869Z,39.33
2023-01-25T06:15:32.677Z,41.95
2023-01-25T06:18:26.206Z,41.13
2023-01-25T06:21:21.814Z,38.08
2023-01-25T06:23:49.686Z,39.55
2023-01-25T06:26:18.990Z,42.35
2023-01-25T06:28:46.784Z,40.83
2023-01-25T06:31:17.418Z,37.00
2023-01-25T06:33:49.363Z,42.85
2023-01-25T06:36:20.047Z,45.70
2023-01-25T06:38:50.985Z,41.35
2023-01-25T06:41:20.953Z,41.22
2023-01-25T06:43:51.741Z,40.80
2023-01-25T06:46:20.164Z,42.22
2023-01-25T06:48:48.089Z,42.70
2023-01-25T06:51:16.865Z,40.92
2023-01-25T06:53:46.660Z,40.55
2023-01-25T06:56:17.668Z,42.90
2023-01-25T06:58:47.348Z,40.05
2023-01-25T07:01:16.808Z,39.92
2023-01-25T07:03:44.635Z,44.03
2023-01-25T07:06:12.720Z,41.17
2023-01-25T07:08:40.540Z,40.83
2023-01-25T07:11:13.625Z,44.33
2023-01-25T07:13:42.554Z,40.72
2023-01-25T07:16:14.202Z,41.95
2023-01-25T07:18:42.247Z,41.35
2023-01-25T07:21:12.057Z,37.80
2023-01-25T07:23:39.941Z,41.80
2023-01-25T07:26:12.008Z,44.50
2023-01-25T07:28:39.787Z,41.95
2023-01-25T07:31:08.123Z,41.25
2023-01-25T07:33:37.379Z,39.45
2023-01-25T07:36:07.186Z,42.47
2023-01-25T07:38:36.333Z,45.03
2023-01-25T07:41:04.726Z,42.47
2023-01-25T07:43:32.581Z,40.38
2023-01-25T07:46:07.511Z,41.25
2023-01-25T07:48:35.360Z,43.33
2023-01-25T07:51:22.518Z,42.33
2023-01-25T07:53:52.729Z,45.95
2023-01-25T07:56:21.788Z,47.40
2023-01-25T07:58:49.569Z,45.70
2023-01-25T08:01:19.793Z,44.78
2023-01-25T08:03:49.325Z,44.60
2023-01-25T08:06:19.142Z,46.10
2023-01-25T08:08:49.470Z,42.90
2023-01-25T08:11:19.284Z,49.13
2023-01-25T08:13:47.393Z,45.95
2023-01-25T08:16:16.273Z,46.42
2023-01-25T08:18:44.857Z,44.83
2023-01-25T08:21:13.267Z,44.08
2023-01-25T08:23:42.641Z,43.15
2023-01-25T08:26:12.541Z,43.78
2023-01-25T08:28:41.154Z,44.67
2023-01-25T08:31:11.850Z,40.97
2023-01-25T08:33:40.847Z,44.30
2023-01-25T08:36:10.767Z,45.25
2023-01-25T08:38:39.265Z,47.67
2023-01-25T08:41:09.866Z,46.83
2023-01-25T08:43:37.958Z,45.33
2023-01-25T08:46:06.643Z,47.83
2023-01-25T08:48:34.558Z,46.72
2023-01-25T08:51:02.965Z,47.63
2023-01-25T08:53:31.415Z,49.90
2023-01-25T08:56:04.838Z,48.28
2023-01-25T08:58:34.297Z,49.75
2023-01-25T09:01:04.504Z,50.20
2023-01-25T09:03:32.617Z,50.75
2023-01-25T09:06:00.816Z,49.38
2023-01-25T09:08:28.672Z,49.95
2023-01-25T09:10:56.494Z,45.53
2023-01-25T09:13:24.280Z,46.70
2023-01-25T09:15:53.409Z,49.22
2023-01-25T09:18:21.237Z,45.47
2023-01-25T09:20:49.003Z,45.92
2023-01-25T09:23:16.819Z,47.75
2023-01-25T09:25:44.577Z,47.53
2023-01-25T09:28:12.438Z,48.17
2023-01-25T09:30:48.478Z,48.10
2023-01-25T09:33:29.701Z,48.55
2023-01-25T09:35:57.848Z,47.75
2023-01-25T09:38:25.791Z,48.35
2023-01-25T09:41:06.731Z,47.10
2023-01-25T09:43:51.717Z,49.45
2023-01-25T09:46:33.090Z,47.28
2023-01-25T09:49:12.512Z,50.42
2023-01-25T09:51:57.485Z,50.45
2023-01-25T09:54:29.934Z,47.90
2023-01-25T09:57:00.190Z,47.38
2023-01-25T09:59:31.574Z,53.15
2023-01-25T10:04:35.115Z,51.33
2023-01-25T10:07:13.474Z,47.63
2023-01-25T10:09:48.887Z,53.03
2023-01-25T10:12:20.593Z,47.55
2023-01-25T10:14:48.831Z,55.28
2023-01-25T10:17:26.263Z,49.65
2023-01-25T10:20:09.677Z,51.47
2023-01-25T10:22:45.030Z,49.15
2023-01-25T10:25:37.274Z,53.58
2023-01-25T10:28:30.010Z,52.47
2023-01-25T10:31:02.004Z,57.05
2023-01-25T10:33:34.831Z,57.22
2023-01-25T10:36:06.340Z,68.28
2023-01-25T10:38:42.182Z,54.30
2023-01-25T10:41:17.557Z,63.35
2023-01-25T10:43:45.356Z,54.17
2023-01-25T10:46:20.976Z,54.50
2023-01-25T10:48:48.802Z,53.80
2023-01-25T10:51:35.330Z,55.00
2023-01-25T10:54:04.625Z,58.25
2023-01-25T10:56:35.294Z,56.15
2023-01-25T10:59:18.735Z,50.33
2023-01-25T11:04:31.162Z,53.17
2023-01-25T11:07:00.905Z,60.65
2023-01-25T11:09:40.067Z,56.17
2023-01-25T11:12:19.409Z,57.42
2023-01-25T11:14:50.591Z,53.88
2023-01-25T11:17:30.091Z,52.78
2023-01-25T11:20:17.264Z,50.88
2023-01-25T11:22:54.999Z,47.70
2023-01-25T11:25:28.733Z,56.13
2023-01-25T11:28:12.745Z,53.75
2023-01-25T11:30:40.778Z,52.63
2023-01-25T11:33:12.258Z,52.25
2023-01-25T11:38:22.360Z,47.15
2023-01-25T11:40:55.262Z,46.28
2023-01-25T11:43:39.522Z,48.92
2023-01-25T11:46:27.807Z,47.53
2023-01-25T11:51:51.204Z,44.80
2023-01-25T11:54:35.312Z,47.85
2023-01-25T11:57:16.476Z,51.25
2023-01-25T12:00:01.631Z,52.58
2023-01-25T12:02:59.561Z,53.20
2023-01-25T12:05:44.665Z,50.08
2023-01-25T12:08:38.851Z,52.50
2023-01-25T12:11:17.515Z,53.15
2023-01-25T12:13:56.982Z,53.28
2023-01-25T12:16:38.733Z,57.08
2023-01-25T12:19:31.138Z,49.50
2023-01-25T12:22:11.147Z,47.65
2023-01-25T12:24:48.930Z,52.33
2023-01-25T12:27:30.538Z,48.80
2023-01-25T12:30:04.344Z,50.70
2023-01-25T12:32:38.195Z,50.15
2023-01-25T12:35:22.781Z,49.47
2023-01-25T12:37:54.155Z,50.92
2023-01-25T12:42:59.700Z,43.15
2023-01-25T12:45:32.245Z,42.92
2023-01-25T12:48:02.725Z,44.42
2023-01-25T12:50:36.172Z,52.17
2023-01-25T12:53:11.135Z,47.40
2023-01-25T12:55:41.148Z,49.42
2023-01-25T12:58:26.507Z,44.92
2023-01-25T13:01:09.567Z,48.05
2023-01-25T13:03:44.367Z,46.95
2023-01-25T13:06:19.425Z,45.25
2023-01-25T13:08:57.200Z,47.00
2023-01-25T13:11:28.404Z,42.15
2023-01-25T13:14:28.314Z,52.20
2023-01-25T13:17:10.794Z,48.20
2023-01-25T13:19:45.341Z,48.85
2023-01-25T13:22:16.319Z,51.05
2023-01-25T13:25:19.685Z,54.22
2023-01-25T13:27:47.650Z,50.38
2023-01-25T13:30:35.419Z,48.75
2023-01-25T13:33:06.485Z,49.78
2023-01-25T13:35:42.194Z,51.92
2023-01-25T13:38:33.555Z,49.67
2023-01-25T13:41:16.958Z,51.67
2023-01-25T13:43:50.593Z,47.75
2023-01-25T13:46:25.527Z,51.63
2023-01-25T13:48:59.599Z,54.70
2023-01-25T13:51:30.857Z,55.78
2023-01-25T13:54:00.449Z,49.50
2023-01-25T13:56:34.236Z,56.38
2023-01-25T13:59:02.462Z,48.42
2023-01-25T14:01:34.694Z,53.75
2023-01-25T14:04:05.281Z,49.53
2023-01-25T14:06:37.003Z,59.40
2023-01-25T14:09:07.677Z,52.80
2023-01-25T14:11:43.971Z,53.20
2023-01-25T14:14:21.528Z,52.13
2023-01-25T14:19:39.875Z,54.75
2023-01-25T14:22:20.850Z,54.28
2023-01-25T14:25:07.175Z,53.17
2023-01-25T14:27:35.899Z,50.28
2023-01-25T14:30:05.543Z,54.22
2023-01-25T14:32:36.957Z,54.72
2023-01-25T14:35:42.359Z,56.08
2023-01-25T14:38:27.172Z,56.00
2023-01-25T14:40:59.177Z,55.05
2023-01-25T14:43:28.022Z,52.38
2023-01-25T14:45:55.876Z,54.22
2023-01-25T14:48:42.834Z,50.72
2023-01-25T14:51:18.248Z,50.05
2023-01-25T14:53:49.091Z,63.85
2023-01-25T14:56:37.303Z,58.15
2023-01-25T14:59:07.298Z,52.17
2023-01-25T15:01:40.705Z,51.78
2023-01-25T15:04:14.251Z,51.80
2023-01-25T15:06:47.487Z,64.13
2023-01-25T15:09:42.339Z,54.53
2023-01-25T15:12:28.436Z,57.60
2023-01-25T15:14:58.078Z,57.67
2023-01-25T15:17:44.134Z,56.28
2023-01-25T15:20:37.548Z,58.13
2023-01-25T15:23:22.379Z,50.50
2023-01-25T15:25:54.792Z,53.00
2023-01-25T15:28:23.494Z,57.10
2023-01-25T15:30:51.766Z,60.92
2023-01-25T15:33:22.237Z,56.83
2023-01-25T15:35:52.095Z,55.22
2023-01-25T15:38:21.843Z,59.28
2023-01-25T15:40:50.045Z,57.30
2023-01-25T15:43:19.740Z,55.60
2023-01-25T15:45:49.773Z,52.15
2023-01-25T15:48:20.652Z,50.35
2023-01-25T15:50:48.442Z,53.00
2023-01-25T15:53:19.631Z,49.20
2023-01-25T15:55:51.773Z,51.85
2023-01-25T15:58:23.908Z,57.10
2023-01-25T16:00:51.741Z,49.42
2023-01-25T16:03:20.433Z,54.50
2023-01-25T16:05:51.406Z,51.75
2023-01-25T16:08:20.982Z,49.83
2023-01-25T16:10:49.751Z,51.63
2023-01-25T16:13:17.714Z,53.75
2023-01-25T16:15:49.949Z,58.42
2023-01-25T16:18:17.770Z,49.35
2023-01-25T16:20:45.836Z,54.38
2023-01-25T16:23:13.739Z,51.20
2023-01-25T16:25:44.243Z,54.35
2023-01-25T16:28:15.583Z,47.20
2023-01-25T16:30:44.974Z,50.47
2023-01-25T16:33:12.955Z,51.15
2023-01-25T16:35:40.833Z,53.20
2023-01-25T16:38:11.810Z,51.03
2023-01-25T16:40:39.846Z,52.20
2023-01-25T16:43:09.070Z,53.33
2023-01-25T16:45:36.873Z,58.28
2023-01-25T16:48:04.927Z,52.47
2023-01-25T16:50:32.703Z,52.30
2023-01-25T16:53:00.470Z,54.88
2023-01-25T16:55:28.286Z,54.55
2023-01-25T16:57:56.050Z,57.00
2023-01-25T17:00:25.459Z,60.88
2023-01-25T17:02:59.120Z,61.10
2023-01-25T17:05:29.043Z,59.50
2023-01-25T17:07:57.023Z,56.45
2023-01-25T17:10:25.003Z,63.05
2023-01-25T17:12:52.957Z,59.47
2023-01-25T17:15:20.947Z,61.45
2023-01-25T17:17:50.881Z,55.78
2023-01-25T17:20:18.937Z,62.67
2023-01-25T17:22:50.985Z,57.53
2023-01-25T17:25:19.175Z,61.17
2023-01-25T17:27:47.055Z,60.47
2023-01-25T17:30:15.479Z,60.20
2023-01-25T17:32:43.319Z,63.35
2023-01-25T17:35:12.475Z,60.97
2023-01-25T17:37:41.110Z,66.72
2023-01-25T17:40:11.298Z,59.70
2023-01-25T17:42:39.366Z,70.20
2023-01-25T17:45:08.977Z,64.25
2023-01-25T17:47:36.937Z,59.35
2023-01-25T17:50:04.997Z,86.00
2023-01-25T17:52:34.387Z,82.05
2023-01-25T17:55:02.269Z,66.40
2023-01-25T17:57:31.306Z,64.55
2023-01-25T17:59:59.219Z,60.47
2023-01-25T18:02:27.071Z,76.10
2023-01-25T18:04:54.863Z,54.25
2023-01-25T18:07:22.671Z,56.15
2023-01-25T18:09:51.945Z,76.45
2023-01-25T18:12:20.742Z,83.35
2023-01-25T18:14:48.641Z,98.78
2023-01-25T18:17:16.417Z,63.25
2023-01-25T18:19:45.894Z,62.40
2023-01-25T18:22:14.629Z,81.10
2023-01-25T18:24:44.740Z,63.78
2023-01-25T18:27:20.203Z,70.88
2023-01-25T18:29:54.870Z,85.85
2023-01-25T18:32:22.709Z,62.70
2023-01-25T18:34:50.555Z,65.43
2023-01-25T18:37:21.851Z,68.25
2023-01-25T18:39:51.175Z,61.15
2023-01-25T18:42:21.601Z,68.90
2023-01-25T18:44:49.530Z,60.03
2023-01-25T18:47:18.809Z,61.95
2023-01-25T18:49:47.661Z,84.97
2023-01-25T18:52:16.653Z,76.88
2023-01-25T18:54:44.563Z,74.03
2023-01-25T18:57:13.224Z,92.90
2023-01-25T18:59:42.942Z,79.85
2023-01-25T19:02:12.819Z,79.82
2023-01-25T19:04:40.757Z,75.43
2023-01-25T19:07:08.609Z,100.97
2023-01-25T19:09:36.420Z,71.80
2023-01-25T19:12:04.375Z,79.68
2023-01-25T19:14:32.202Z,78.22
2023-01-25T19:17:01.388Z,75.80
2023-01-25T19:19:32.085Z,68.38
2023-01-25T19:22:00.614Z,74.00
2023-01-25T19:24:28.839Z,101.50
2023-01-25T19:26:56.674Z,110.95
2023-01-25T19:29:24.465Z,97.30
2023-01-25T19:31:52.307Z,81.22
2023-01-25T19:34:21.468Z,86.28
2023-01-25T19:36:50.613Z,112.93
2023-01-25T19:39:19.047Z,118.18
2023-01-25T19:41:47.089Z,87.60
2023-01-25T19:44:15.760Z,91.82
2023-01-25T19:46:44.157Z,127.70
2023-01-25T19:49:13.212Z,116.20
2023-01-25T19:51:45.571Z,119.28
2023-01-25T19:54:16.508Z,166.65
2023-01-25T19:56:46.050Z,102.60
2023-01-25T19:59:16.222Z,110.32
2023-01-25T20:01:45.202Z,177.02
2023-01-25T20:04:14.413Z,110.97
2023-01-25T20:06:44.431Z,107.13
2023-01-25T20:09:14.188Z,92.00
2023-01-25T20:11:42.380Z,89.45
2023-01-25T20:14:12.899Z,99.40
2023-01-25T20:16:41.036Z,147.30
2023-01-25T20:19:12.132Z,92.28
2023-01-25T20:21:40.147Z,132.15
2023-01-25T20:24:10.482Z,116.90
2023-01-25T20:26:42.517Z,109.40
2023-01-25T20:29:16.932Z,104.88
2023-01-25T20:31:48.463Z,104.70
2023-01-25T20:34:18.774Z,101.40
2023-01-25T20:36:47.225Z,130.98
2023-01-25T20:39:18.279Z,103.72
2023-01-25T20:41:46.564Z,108.25
2023-01-25T20:44:17.117Z,94.63
2023-01-25T20:46:45.598Z,102.47
2023-01-25T20:49:16.476Z,104.07
2023-01-25T20:51:44.404Z,103.35
2023-01-25T20:54:12.427Z,161.32
2023-01-25T20:56:42.922Z,107.55
2023-01-25T20:59:11.111Z,135.65
2023-01-25T21:01:38.959Z,112.07
2023-01-25T21:04:09.640Z,116.65
2023-01-25T21:06:38.722Z,111.32
2023-01-25T21:09:06.962Z,117.72
2023-01-25T21:11:34.770Z,103.88
2023-01-25T21:14:04.246Z,96.43
2023-01-25T21:16:32.115Z,91.88
2023-01-25T21:19:01.795Z,120.53
2023-01-25T21:21:31.024Z,107.82
2023-01-25T21:24:02.485Z,107.15
2023-01-25T21:26:32.097Z,108.40
2023-01-25T21:29:01.689Z,115.90
2023-01-25T21:31:33.424Z,111.20
2023-01-25T21:34:01.405Z,125.53
2023-01-25T21:36:29.670Z,101.53
2023-01-25T21:38:58.110Z,104.18
2023-01-25T21:41:29.047Z,102.60
2023-01-25T21:44:21.347Z,120.68
2023-01-25T21:49:55.735Z,109.38
2023-01-25T21:52:23.651Z,107.78
2023-01-25T21:54:51.479Z,106.57
2023-01-25T21:57:19.251Z,107.80
2023-01-25T21:59:47.130Z,119.20
2023-01-25T22:02:16.470Z,109.25
2023-01-25T22:04:44.351Z,108.55
2023-01-25T22:07:12.646Z,134.82
2023-01-25T22:09:40.502Z,100.63
2023-01-25T22:12:08.364Z,128.38
2023-01-25T22:14:36.569Z,118.22
2023-01-25T22:17:05.020Z,96.93
2023-01-25T22:19:34.222Z,103.93
2023-01-25T22:22:02.020Z,114.22
2023-01-25T22:24:29.831Z,105.05
2023-01-25T22:27:04.617Z,108.78
2023-01-25T22:29:33.727Z,108.50
2023-01-25T22:32:03.214Z,108.93
2023-01-25T22:34:31.037Z,98.50
2023-01-25T22:37:00.288Z,121.00
2023-01-25T22:39:28.084Z,110.65
2023-01-25T22:41:56.445Z,98.40
2023-01-25T22:44:24.303Z,118.55
2023-01-25T22:46:53.725Z,126.90
2023-01-25T22:49:21.886Z,110.28
2023-01-25T22:51:49.716Z,144.60
2023-01-25T22:54:18.998Z,103.35
2023-01-25T22:56:46.883Z,106.45
2023-01-25T22:59:19.364Z,123.38
2023-01-25T23:01:47.227Z,106.40
2023-01-25T23:04:15.023Z,120.15
2023-01-25T23:06:42.884Z,119.43
2023-01-25T23:09:11.435Z,99.95
2023-01-25T23:11:40.562Z,104.95
2023-01-25T23:14:29.640Z,98.93
2023-01-25T23:17:17.754Z,94.38
2023-01-25T23:19:44.923Z,105.05
2023-01-25T23:22:12.708Z,115.25
2023-01-25T23:24:40.584Z,93.88
2023-01-25T23:27:09.774Z,97.13
2023-01-25T23:29:38.168Z,94.72
2023-01-25T23:32:06.518Z,95.53
2023-01-25T23:34:39.541Z,92.50
2023-01-25T23:37:07.375Z,88.15
2023-01-25T23:39:35.200Z,102.25
2023-01-25T23:42:03.061Z,100.05
2023-01-25T23:44:32.231Z,103.80
2023-01-25T23:47:00.533Z,140.75
2023-01-25T23:49:28.302Z,108.50
2023-01-25T23:51:56.115Z,105.40
2023-01-25T23:54:23.903Z,120.45
2023-01-25T23:56:51.783Z,105.90
2023-01-25T23:59:19.840Z,117.40
